createdAt,value
2019-02-07T00:00:48.467Z,86.50
2019-02-07T00:03:16.253Z,86.60
2019-02-07T00:06:03.642Z,86.50
2019-02-07T00:08:31.483Z,86.60
2019-02-07T00:10:59.309Z,86.40
2019-02-07T00:13:27.155Z,86.50
2019-02-07T00:15:54.926Z,86.60
2019-02-07T00:18:22.727Z,86.50
2019-02-07T00:20:50.571Z,87.10
2019-02-07T00:23:18.551Z,86.90
2019-02-07T00:25:46.432Z,87.20
2019-02-07T00:28:14.277Z,86.50
2019-02-07T00:30:42.086Z,86.70
2019-02-07T00:33:09.953Z,87.00
2019-02-07T00:35:37.752Z,86.50
2019-02-07T00:38:05.575Z,86.80
2019-02-07T00:40:33.318Z,86.40
2019-02-07T00:43:01.137Z,86.50
2019-02-07T00:45:28.900Z,86.50
2019-02-07T00:47:56.720Z,86.40
2019-02-07T00:50:24.467Z,86.90
2019-02-07T00:52:52.271Z,86.40
2019-02-07T00:55:20.363Z,87.60
2019-02-07T00:57:48.315Z,87.60
2019-02-07T01:00:21.570Z,87.10
2019-02-07T01:02:49.435Z,86.90
2019-02-07T01:05:17.457Z,87.00
2019-02-07T01:07:45.316Z,86.90
2019-02-07T01:10:17.929Z,86.90
2019-02-07T01:12:45.731Z,86.80
2019-02-07T01:15:14.026Z,86.80
2019-02-07T01:17:42.085Z,85.80
2019-02-07T01:20:13.522Z,86.00
2019-02-07T01:22:41.647Z,85.80
2019-02-07T01:25:13.250Z,86.30
2019-02-07T01:27:41.080Z,86.00
2019-02-07T01:30:12.045Z,86.80
2019-02-07T01:32:39.875Z,86.90
2019-02-07T01:35:07.829Z,86.80
2019-02-07T01:37:35.772Z,86.40
2019-02-07T01:40:07.293Z,85.50
2019-02-07T01:42:35.163Z,86.70
2019-02-07T01:45:12.868Z,85.90
2019-02-07T01:47:38.340Z,85.80
2019-02-07T01:50:08.921Z,85.80
2019-02-07T01:52:36.673Z,85.00
2019-02-07T01:55:05.181Z,84.90
2019-02-07T01:57:33.001Z,84.40
2019-02-07T02:00:00.843Z,84.60
2019-02-07T02:02:28.706Z,84.50
2019-02-07T02:04:56.555Z,84.40
2019-02-07T02:07:24.346Z,84.40
2019-02-07T02:09:52.127Z,84.80
2019-02-07T02:12:20.277Z,84.00
2019-02-07T02:14:48.149Z,84.40
2019-02-07T02:17:16.063Z,83.90
2019-02-07T02:19:43.882Z,84.00
2019-02-07T02:22:11.896Z,84.10
2019-02-07T02:24:39.742Z,83.80
2019-02-07T02:27:07.697Z,83.80
2019-02-07T02:29:35.911Z,83.60
2019-02-07T02:32:04.617Z,84.00
2019-02-07T02:34:32.859Z,83.70
2019-02-07T02:37:25.649Z,83.80
2019-02-07T02:39:54.341Z,84.30
2019-02-07T02:42:22.505Z,85.00
2019-02-07T02:44:50.854Z,85.50
2019-02-07T02:47:34.294Z,85.40
2019-02-07T02:50:02.775Z,85.20
2019-02-07T02:52:31.010Z,84.90
2019-02-07T02:54:59.375Z,84.80
2019-02-07T02:57:43.163Z,85.60
2019-02-07T03:00:18.980Z,84.70
2019-02-07T03:03:09.187Z,84.90
2019-02-07T03:05:55.649Z,85.10
2019-02-07T03:08:43.386Z,85.00
2019-02-07T03:11:30.004Z,85.70
2019-02-07T03:14:16.413Z,85.00
2019-02-07T03:17:21.093Z,84.90
2019-02-07T03:20:08.774Z,85.60
2019-02-07T03:22:55.218Z,85.20
2019-02-07T03:25:36.115Z,84.60
2019-02-07T03:28:22.682Z,84.70
2019-02-07T03:31:09.555Z,84.40
2019-02-07T03:33:57.485Z,84.60
2019-02-07T03:36:46.980Z,84.20
2019-02-07T03:39:20.767Z,84.20
2019-02-07T03:42:08.669Z,84.00
2019-02-07T03:44:56.455Z,84.60
2019-02-07T03:47:43.178Z,84.00
2019-02-07T03:50:43.166Z,83.70
2019-02-07T03:53:49.029Z,84.70
2019-02-07T03:56:44.951Z,83.50
2019-02-07T03:59:21.467Z,83.20
2019-02-07T04:02:17.860Z,83.20
2019-02-07T04:04:59.291Z,82.90
2019-02-07T04:07:49.649Z,83.50
2019-02-07T04:10:34.101Z,83.40
2019-02-07T04:13:20.139Z,83.50
2019-02-07T04:16:15.312Z,84.00
2019-02-07T04:18:54.687Z,83.60
2019-02-07T04:21:30.592Z,84.10
2019-02-07T04:24:18.621Z,83.90
2019-02-07T04:27:15.195Z,83.20
2019-02-07T04:30:08.403Z,83.30
2019-02-07T04:32:56.904Z,84.60
2019-02-07T04:35:48.236Z,82.70
2019-02-07T04:38:34.458Z,82.60
2019-02-07T04:41:33.621Z,82.30
2019-02-07T04:44:19.571Z,82.30
2019-02-07T04:47:05.811Z,81.80
2019-02-07T04:50:09.176Z,82.30
2019-02-07T04:53:05.509Z,81.40
2019-02-07T04:56:04.889Z,80.90
2019-02-07T04:58:55.102Z,80.20
2019-02-07T05:01:42.551Z,80.10
2019-02-07T05:04:38.867Z,79.90
2019-02-07T05:07:24.823Z,79.50
2019-02-07T05:10:11.100Z,80.60
2019-02-07T05:12:57.402Z,80.50
2019-02-07T05:15:48.029Z,79.90
2019-02-07T05:18:34.337Z,79.70
2019-02-07T05:21:13.634Z,79.10
2019-02-07T05:23:59.619Z,78.50
2019-02-07T05:26:59.355Z,78.30
2019-02-07T05:29:58.727Z,77.40
2019-02-07T05:32:48.909Z,77.50
2019-02-07T05:35:42.143Z,77.10
2019-02-07T05:38:45.073Z,76.80
2019-02-07T05:41:36.501Z,77.40
2019-02-07T05:44:26.787Z,77.70
2019-02-07T05:47:39.643Z,78.00
2019-02-07T05:50:30.891Z,77.20
2019-02-07T05:53:10.903Z,77.40
2019-02-07T05:56:04.128Z,77.30
2019-02-07T05:58:48.818Z,78.20
2019-02-07T06:01:39.110Z,79.20
2019-02-07T06:04:26.591Z,79.80
2019-02-07T06:07:29.991Z,80.00
2019-02-07T06:10:19.594Z,81.50
2019-02-07T06:13:27.055Z,80.80
2019-02-07T06:16:32.695Z,80.50
2019-02-07T06:19:18.051Z,81.40
2019-02-07T06:21:56.336Z,80.60
2019-02-07T06:24:49.821Z,79.00
2019-02-07T06:28:08.252Z,77.70
2019-02-07T06:31:20.163Z,77.50
2019-02-07T06:34:07.587Z,78.20
2019-02-07T06:36:53.516Z,78.00
2019-02-07T06:39:41.737Z,77.50
2019-02-07T06:42:23.196Z,76.90
2019-02-07T06:45:22.785Z,77.50
2019-02-07T06:48:13.207Z,77.50
2019-02-07T06:51:15.944Z,76.90
2019-02-07T06:54:02.528Z,76.80
2019-02-07T06:56:58.754Z,77.40
2019-02-07T06:59:43.710Z,77.60
2019-02-07T07:02:36.954Z,77.30
2019-02-07T07:05:21.244Z,76.80
2019-02-07T07:08:07.183Z,76.20
2019-02-07T07:11:06.293Z,76.10
2019-02-07T07:14:08.801Z,76.60
2019-02-07T07:16:59.538Z,76.50
2019-02-07T07:19:51.071Z,75.50
2019-02-07T07:22:41.750Z,75.70
2019-02-07T07:25:29.210Z,75.40
2019-02-07T07:31:14.804Z,76.20
2019-02-07T07:34:00.901Z,77.20
2019-02-07T07:36:57.425Z,76.10
2019-02-07T07:40:07.821Z,75.10
2019-02-07T07:43:07.041Z,75.40
2019-02-07T07:45:58.948Z,75.70
2019-02-07T07:48:45.817Z,75.60
2019-02-07T07:51:22.753Z,74.90
2019-02-07T07:54:32.052Z,74.90
2019-02-07T07:57:31.886Z,75.70
2019-02-07T08:00:22.218Z,74.80
2019-02-07T08:03:07.318Z,74.00
2019-02-07T08:06:00.663Z,73.90
2019-02-07T08:08:44.731Z,72.60
2019-02-07T08:11:32.111Z,72.60
2019-02-07T08:14:18.346Z,73.60
2019-02-07T08:17:07.400Z,73.50
2019-02-07T08:20:10.078Z,73.20
2019-02-07T08:22:56.227Z,73.30
2019-02-07T08:25:43.804Z,73.10
2019-02-07T08:28:30.066Z,73.10
2019-02-07T08:31:17.476Z,72.80
2019-02-07T08:34:03.523Z,72.50
2019-02-07T08:36:47.876Z,70.90
2019-02-07T08:39:38.179Z,71.60
2019-02-07T08:42:14.744Z,72.00
2019-02-07T08:45:14.180Z,71.10
2019-02-07T08:48:13.453Z,70.20
2019-02-07T08:51:10.209Z,71.00
2019-02-07T08:53:46.733Z,70.60
2019-02-07T08:56:37.015Z,69.80
2019-02-07T08:59:33.668Z,68.80
2019-02-07T09:02:30.843Z,69.40
2019-02-07T09:05:12.434Z,69.50
2019-02-07T09:07:54.735Z,69.70
2019-02-07T09:10:40.929Z,68.60
2019-02-07T09:13:26.553Z,68.80
2019-02-07T09:16:06.563Z,68.70
2019-02-07T09:19:06.347Z,68.90
2019-02-07T09:21:56.838Z,69.20
2019-02-07T09:24:53.737Z,69.20
2019-02-07T09:27:43.883Z,69.30
2019-02-07T09:30:27.699Z,68.20
2019-02-07T09:33:26.767Z,68.00
2019-02-07T09:36:46.261Z,70.30
2019-02-07T09:39:32.236Z,73.20
2019-02-07T09:42:18.482Z,73.20
2019-02-07T09:45:18.225Z,73.50
2019-02-07T09:48:04.436Z,74.70
2019-02-07T09:51:01.116Z,73.20
2019-02-07T09:53:48.564Z,75.30
2019-02-07T09:56:41.583Z,74.40
2019-02-07T09:59:28.960Z,77.30
2019-02-07T10:02:14.911Z,75.80
2019-02-07T10:04:59.256Z,74.60
2019-02-07T10:08:05.415Z,76.70
2019-02-07T10:10:41.440Z,77.00
2019-02-07T10:13:27.388Z,73.50
2019-02-07T10:16:18.496Z,74.90
2019-02-07T10:19:15.097Z,76.20
2019-02-07T10:22:09.692Z,74.70
2019-02-07T10:24:55.722Z,77.00
2019-02-07T10:27:49.187Z,76.80
2019-02-07T10:30:37.262Z,77.10
2019-02-07T10:33:24.918Z,78.60
2019-02-07T10:36:12.310Z,79.20
2019-02-07T10:38:58.218Z,79.10
2019-02-07T10:42:00.394Z,78.30
2019-02-07T10:44:58.216Z,77.00
2019-02-07T10:47:40.817Z,76.30
2019-02-07T10:50:32.368Z,76.20
2019-02-07T10:53:40.536Z,76.00
2019-02-07T10:56:27.973Z,76.60
2019-02-07T10:59:26.901Z,74.70
2019-02-07T11:02:12.955Z,75.70
2019-02-07T11:05:01.428Z,77.20
2019-02-07T11:08:04.243Z,75.70
2019-02-07T11:10:50.199Z,76.70
2019-02-07T11:13:37.031Z,73.90
2019-02-07T11:16:34.632Z,76.40
2019-02-07T11:19:21.606Z,76.50
2019-02-07T11:22:07.628Z,77.60
2019-02-07T11:24:55.038Z,75.60
2019-02-07T11:27:42.468Z,75.60
2019-02-07T11:30:39.570Z,74.80
2019-02-07T11:33:23.948Z,76.80
2019-02-07T11:36:12.855Z,78.90
2019-02-07T11:39:03.597Z,77.10
2019-02-07T11:41:57.564Z,78.80
2019-02-07T11:44:36.352Z,76.90
2019-02-07T11:47:29.617Z,76.90
2019-02-07T11:50:15.955Z,75.40
2019-02-07T11:53:02.148Z,75.60
2019-02-07T11:55:49.529Z,77.30
2019-02-07T11:58:33.439Z,76.80
2019-02-07T12:01:19.509Z,76.00
2019-02-07T12:04:22.077Z,76.30
2019-02-07T12:07:10.465Z,75.10
2019-02-07T12:09:44.970Z,75.50
2019-02-07T12:12:35.668Z,75.00
2019-02-07T12:15:34.750Z,73.40
2019-02-07T12:18:13.460Z,74.40
2019-02-07T12:20:59.222Z,75.20
2019-02-07T12:23:57.433Z,74.30
2019-02-07T12:26:37.096Z,77.40
2019-02-07T12:29:23.509Z,77.50
2019-02-07T12:32:23.145Z,77.60
2019-02-07T12:34:58.063Z,78.10
2019-02-07T12:37:43.856Z,77.70
2019-02-07T12:40:21.859Z,79.30
2019-02-07T12:43:29.098Z,79.40
2019-02-07T12:46:27.798Z,80.00
2019-02-07T12:49:16.248Z,77.80
2019-02-07T12:51:59.646Z,79.40
2019-02-07T12:54:59.521Z,79.40
2019-02-07T12:57:53.608Z,79.90
2019-02-07T13:00:50.139Z,78.10
2019-02-07T13:03:37.830Z,78.80
2019-02-07T13:06:40.669Z,79.10
2019-02-07T13:09:38.915Z,79.10
2019-02-07T13:12:28.281Z,76.70
2019-02-07T13:15:06.228Z,76.30
2019-02-07T13:17:46.864Z,75.40
2019-02-07T13:20:41.041Z,75.50
2019-02-07T13:23:31.131Z,76.50
2019-02-07T13:26:57.664Z,77.60
2019-02-07T13:29:51.143Z,78.00
2019-02-07T13:32:37.456Z,77.40
2019-02-07T13:35:25.618Z,78.20
2019-02-07T13:38:11.435Z,77.90
2019-02-07T13:40:57.769Z,79.60
2019-02-07T13:43:45.038Z,80.40
2019-02-07T13:46:47.610Z,79.80
2019-02-07T13:49:33.863Z,79.60
2019-02-07T13:52:24.289Z,80.80
2019-02-07T13:55:17.700Z,79.80
2019-02-07T13:58:24.340Z,79.70
2019-02-07T14:01:30.150Z,78.40
2019-02-07T14:04:23.538Z,79.70
2019-02-07T14:07:49.067Z,79.70
2019-02-07T14:10:45.224Z,79.90
2019-02-07T14:13:35.434Z,79.90
2019-02-07T14:16:34.676Z,79.80
2019-02-07T14:19:20.653Z,79.20
2019-02-07T14:22:07.055Z,80.30
2019-02-07T14:24:57.723Z,79.70
2019-02-07T14:27:36.408Z,79.80
2019-02-07T14:30:17.830Z,79.90
2019-02-07T14:32:51.222Z,81.10
2019-02-07T14:35:56.799Z,79.80
2019-02-07T14:38:47.107Z,79.80
2019-02-07T14:44:42.750Z,81.20
2019-02-07T14:47:10.552Z,80.50
2019-02-07T14:49:41.406Z,79.70
2019-02-07T14:52:10.489Z,77.80
2019-02-07T14:54:38.299Z,78.20
2019-02-07T14:57:06.345Z,79.30
2019-02-07T14:59:34.109Z,76.20
2019-02-07T15:02:02.044Z,75.60
2019-02-07T15:04:29.849Z,75.40
2019-02-07T15:06:57.994Z,76.30
2019-02-07T15:09:26.038Z,77.20
2019-02-07T15:11:54.096Z,78.80
2019-02-07T15:14:21.951Z,78.50
2019-02-07T15:16:49.821Z,77.70
2019-02-07T15:19:34.949Z,78.00
2019-02-07T15:22:02.815Z,77.90
2019-02-07T15:24:30.639Z,75.20
2019-02-07T15:26:58.504Z,75.20
2019-02-07T15:29:26.354Z,75.70
2019-02-07T15:31:54.162Z,75.40
2019-02-07T15:34:21.962Z,75.10
2019-02-07T15:36:52.289Z,75.10
2019-02-07T15:39:39.947Z,76.40
2019-02-07T15:42:07.745Z,79.00
2019-02-07T15:44:35.567Z,78.10
2019-02-07T15:47:04.455Z,77.10
2019-02-07T15:49:32.296Z,75.90
2019-02-07T15:52:00.064Z,76.30
2019-02-07T15:54:28.984Z,77.60
2019-02-07T15:56:56.820Z,78.30
2019-02-07T15:59:42.976Z,78.30
2019-02-07T16:02:21.018Z,78.70
2019-02-07T16:04:48.880Z,78.70
2019-02-07T16:07:16.765Z,78.40
2019-02-07T16:09:44.609Z,79.60
2019-02-07T16:12:12.444Z,80.50
2019-02-07T16:14:41.131Z,80.00
2019-02-07T16:17:08.945Z,81.40
2019-02-07T16:19:36.847Z,81.40
2019-02-07T16:22:04.926Z,78.70
2019-02-07T16:24:32.745Z,80.00
2019-02-07T16:27:00.711Z,80.30
2019-02-07T16:29:28.549Z,80.00
2019-02-07T16:31:57.060Z,80.20
2019-02-07T16:34:24.893Z,80.00
2019-02-07T16:36:55.043Z,80.00
2019-02-07T16:39:22.897Z,79.20
2019-02-07T16:41:50.816Z,79.60
2019-02-07T16:44:18.878Z,80.80
2019-02-07T16:46:46.831Z,81.50
2019-02-07T16:49:14.679Z,80.70
2019-02-07T16:51:42.510Z,80.10
2019-02-07T16:54:10.323Z,81.20
2019-02-07T16:56:57.918Z,81.50
2019-02-07T16:59:25.734Z,80.00
2019-02-07T17:01:53.582Z,79.80
2019-02-07T17:04:21.373Z,78.70
2019-02-07T17:06:49.304Z,78.70
2019-02-07T17:09:34.291Z,79.00
2019-02-07T17:12:02.131Z,80.00
2019-02-07T17:14:30.358Z,80.00
2019-02-07T17:16:58.417Z,80.80
2019-02-07T17:19:26.244Z,80.30
2019-02-07T17:21:54.099Z,80.90
2019-02-07T17:24:21.902Z,80.10
2019-02-07T17:26:54.748Z,81.00
2019-02-07T17:29:22.850Z,80.50
2019-02-07T17:31:50.665Z,81.00
2019-02-07T17:34:18.486Z,82.20
2019-02-07T17:36:51.931Z,85.40
2019-02-07T17:39:21.048Z,84.90
2019-02-07T17:41:48.915Z,84.90
2019-02-07T17:44:25.769Z,85.40
2019-02-07T17:46:53.702Z,85.10
2019-02-07T17:49:21.644Z,84.90
2019-02-07T17:52:00.177Z,84.90
2019-02-07T17:54:36.890Z,85.50
2019-02-07T17:57:15.233Z,84.60
2019-02-07T17:59:43.104Z,83.50
2019-02-07T18:02:13.501Z,83.00
2019-02-07T18:04:43.980Z,82.90
2019-02-07T18:07:26.217Z,82.00
2019-02-07T18:09:54.056Z,81.40
2019-02-07T18:12:21.866Z,81.40
2019-02-07T18:14:49.780Z,80.70
2019-02-07T18:17:17.564Z,80.70
2019-02-07T18:19:45.443Z,80.70
2019-02-07T18:22:13.259Z,80.50
2019-02-07T18:25:00.595Z,81.30
2019-02-07T18:27:28.618Z,82.40
2019-02-07T18:29:56.479Z,81.50
2019-02-07T18:32:24.367Z,82.10
2019-02-07T18:34:52.184Z,81.80
2019-02-07T18:37:20.255Z,81.70
2019-02-07T18:39:48.161Z,80.30
2019-02-07T18:42:15.990Z,80.40
2019-02-07T18:44:43.892Z,80.10
2019-02-07T18:47:16.987Z,80.90
2019-02-07T18:49:44.828Z,81.70
2019-02-07T18:52:13.189Z,81.70
2019-02-07T18:54:43.388Z,83.40
2019-02-07T18:57:16.328Z,82.40
2019-02-07T18:59:45.460Z,81.80
2019-02-07T19:02:13.349Z,81.10
2019-02-07T19:04:41.501Z,82.70
2019-02-07T19:07:09.418Z,81.80
2019-02-07T19:09:37.477Z,81.90
2019-02-07T19:12:05.411Z,81.50
2019-02-07T19:14:33.243Z,84.10
2019-02-07T19:17:01.033Z,83.30
2019-02-07T19:19:28.886Z,83.50
2019-02-07T19:21:57.944Z,84.20
2019-02-07T19:24:25.751Z,83.80
2019-02-07T19:26:53.642Z,83.70
2019-02-07T19:29:21.504Z,84.90
2019-02-07T19:31:50.438Z,84.30
2019-02-07T19:34:18.262Z,83.90
2019-02-07T19:36:46.070Z,85.00
2019-02-07T19:39:13.914Z,85.00
2019-02-07T19:41:41.733Z,85.00
2019-02-07T19:44:09.732Z,85.20
2019-02-07T19:46:37.682Z,86.70
2019-02-07T19:49:05.579Z,85.20
2019-02-07T19:51:33.438Z,84.90
2019-02-07T19:54:01.278Z,84.80
2019-02-07T19:56:29.216Z,86.30
2019-02-07T19:58:57.110Z,86.40
2019-02-07T20:01:25.044Z,86.50
2019-02-07T20:03:53.064Z,86.30
2019-02-07T20:06:20.979Z,86.30
2019-02-07T20:08:48.823Z,86.60
2019-02-07T20:11:16.727Z,86.30
2019-02-07T20:13:44.558Z,86.00
2019-02-07T20:16:12.375Z,85.30
2019-02-07T20:18:40.562Z,84.90
2019-02-07T20:21:08.371Z,85.00
2019-02-07T20:23:36.351Z,85.00
2019-02-07T20:26:04.513Z,84.90
2019-02-07T20:28:33.376Z,84.00
2019-02-07T20:31:01.206Z,84.60
2019-02-07T20:33:29.139Z,85.40
2019-02-07T20:35:56.925Z,86.10
2019-02-07T20:38:25.519Z,86.00
2019-02-07T20:40:53.382Z,85.20
2019-02-07T20:43:21.251Z,85.00
2019-02-07T20:45:49.239Z,85.50
2019-02-07T20:48:17.135Z,85.60
2019-02-07T20:50:45.400Z,85.90
2019-02-07T20:53:16.595Z,86.30
2019-02-07T20:55:52.555Z,87.20
2019-02-07T20:58:20.411Z,87.50
2019-02-07T21:00:48.277Z,88.50
2019-02-07T21:03:16.117Z,90.00
2019-02-07T21:05:59.050Z,90.70
2019-02-07T21:08:27.421Z,90.80
2019-02-07T21:10:55.271Z,90.50
2019-02-07T21:13:23.084Z,90.50
2019-02-07T21:15:50.861Z,90.60
2019-02-07T21:18:18.867Z,90.60
2019-02-07T21:20:46.717Z,90.20
2019-02-07T21:23:14.564Z,89.80
2019-02-07T21:25:54.595Z,89.50
2019-02-07T21:28:22.371Z,90.50
2019-02-07T21:30:50.215Z,89.60
2019-02-07T21:33:17.973Z,90.10
2019-02-07T21:35:45.980Z,89.70
2019-02-07T21:38:13.778Z,90.20
2019-02-07T21:40:41.545Z,90.20
2019-02-07T21:43:09.991Z,89.70
2019-02-07T21:45:37.786Z,90.00
2019-02-07T21:48:09.419Z,88.30
2019-02-07T21:50:37.361Z,88.10
2019-02-07T21:53:07.754Z,87.90
2019-02-07T21:55:35.743Z,88.90
2019-02-07T21:58:04.533Z,88.60
2019-02-07T22:00:38.474Z,88.70
2019-02-07T22:03:09.356Z,89.60
2019-02-07T22:05:37.375Z,89.50
2019-02-07T22:08:06.168Z,88.50
2019-02-07T22:10:33.927Z,88.70
2019-02-07T22:13:01.778Z,89.80
2019-02-07T22:15:29.909Z,89.40
2019-02-07T22:17:57.715Z,89.40
2019-02-07T22:20:25.951Z,89.30
2019-02-07T22:22:53.968Z,90.60
2019-02-07T22:25:23.011Z,89.50
2019-02-07T22:27:50.951Z,89.50
2019-02-07T22:30:25.291Z,89.60
2019-02-07T22:32:53.288Z,88.40
2019-02-07T22:35:21.206Z,88.40
2019-02-07T22:37:54.152Z,88.20
2019-02-07T22:40:22.637Z,87.40
2019-02-07T22:42:50.654Z,86.90
2019-02-07T22:45:19.481Z,86.40
2019-02-07T22:48:02.585Z,86.80
2019-02-07T22:50:30.900Z,86.60
2019-02-07T22:52:59.810Z,87.20
2019-02-07T22:55:27.725Z,88.60
2019-02-07T22:57:55.728Z,89.30
2019-02-07T23:01:25.242Z,90.00
2019-02-07T23:03:56.358Z,90.30
2019-02-07T23:06:24.362Z,90.40
2019-02-07T23:08:52.150Z,90.40
2019-02-07T23:11:20.051Z,91.00
2019-02-07T23:13:47.860Z,91.00
2019-02-07T23:16:15.935Z,91.60
2019-02-07T23:18:44.238Z,91.30
2019-02-07T23:21:12.047Z,91.40
2019-02-07T23:23:43.222Z,91.20
2019-02-07T23:26:16.071Z,91.40
2019-02-07T23:28:43.855Z,91.00
2019-02-07T23:31:11.625Z,90.70
2019-02-07T23:33:39.566Z,90.60
2019-02-07T23:36:10.545Z,90.10
2019-02-07T23:38:38.381Z,90.20
2019-02-07T23:41:08.024Z,90.50
2019-02-07T23:43:35.974Z,89.60
2019-02-07T23:46:04.289Z,90.10
2019-02-07T23:48:32.108Z,90.20
2019-02-07T23:51:00.336Z,90.40
2019-02-07T23:53:28.230Z,90.00
2019-02-07T23:55:56.009Z,90.00
2019-02-07T23:58:23.836Z,90.80
